Time;durP1;ratioP1;P1;durP2;ratioP2;P2;SDS_P1;SDS_P2;PMS_P1;PMS_P2;Temp;Humidity;BMP_temperature;BMP_pressure;BME280_temperature;BME280_humidity;BME280_pressure;Samples;Min_cycle;Max_cycle;Signal;HPM_P1;HPM_P2
2023/04/30 00:00:10;;;;;;;6.07;2.87;;;;;;;;;;5031367;28;20233;-58
2023/04/30 00:02:36;;;;;;;4.20;2.63;;;;;;;;;;5031530;28;20280;-57
2023/04/30 00:05:02;;;;;;;6.17;2.90;;;;;;;;;;5031026;28;20342;-57
2023/04/30 00:07:28;;;;;;;5.83;2.87;;;;;;;;;;5031150;28;20201;-58
2023/04/30 00:09:54;;;;;;;6.60;2.87;;;;;;;;;;5031448;28;20258;-58
2023/04/30 00:12:21;;;;;;;6.17;2.60;;;;;;;;;;5031570;28;20276;-58
2023/04/30 00:14:48;;;;;;;4.97;2.67;;;;;;;;;;5031678;28;20262;-58
2023/04/30 00:17:14;;;;;;;9.90;3.00;;;;;;;;;;5031118;28;20721;-58
2023/04/30 00:19:41;;;;;;;4.43;3.33;;;;;;;;;;5031121;28;20201;-56
2023/04/30 00:22:07;;;;;;;8.10;4.70;;;;;;;;;;5031348;28;20193;-59
2023/04/30 00:24:33;;;;;;;5.67;4.00;;;;;;;;;;5030930;28;20271;-56
2023/04/30 00:26:59;;;;;;;6.10;4.23;;;;;;;;;;5031179;28;20216;-58
2023/04/30 00:29:27;;;;;;;8.00;4.43;;;;;;;;;;5030873;28;20659;-57
2023/04/30 00:31:53;;;;;;;6.57;4.23;;;;;;;;;;5031158;28;20201;-56
2023/04/30 00:34:19;;;;;;;4.63;3.83;;;;;;;;;;5030947;28;20571;-57
2023/04/30 00:36:45;;;;;;;8.67;4.47;;;;;;;;;;5031038;28;20210;-57
2023/04/30 00:39:11;;;;;;;6.50;4.17;;;;;;;;;;5030926;28;20203;-57
2023/04/30 00:41:38;;;;;;;4.77;3.87;;;;;;;;;;5030973;28;20208;-57
2023/04/30 00:44:05;;;;;;;5.77;3.47;;;;;;;;;;5030972;28;20221;-57
2023/04/30 00:46:32;;;;;;;6.50;3.63;;;;;;;;;;5030782;28;20442;-57
2023/04/30 00:49:01;;;;;;;8.13;4.30;;;;;;;;;;5030808;28;20205;-57
2023/04/30 00:51:27;;;;;;;6.93;3.83;;;;;;;;;;5030706;28;20435;-57
2023/04/30 00:53:53;;;;;;;7.33;3.50;;;;;;;;;;5031585;28;20201;-57
2023/04/30 00:56:19;;;;;;;6.00;3.50;;;;;;;;;;5034617;28;20197;-57
2023/04/30 00:58:46;;;;;;;8.63;4.20;;;;;;;;;;5034559;28;20451;-58
2023/04/30 01:01:12;;;;;;;5.23;3.43;;;;;;;;;;5034493;28;20785;-58
2023/04/30 01:03:40;;;;;;;6.10;3.33;;;;;;;;;;5034342;28;20813;-58
2023/04/30 01:06:06;;;;;;;7.23;3.23;;;;;;;;;;5034439;28;20521;-58
2023/04/30 01:08:33;;;;;;;5.87;3.33;;;;;;;;;;5034159;28;20201;-58
2023/04/30 01:11:07;;;;;;;5.07;3.30;;;;;;;;;;5034267;28;20440;-57
2023/04/30 01:13:38;;;;;;;6.17;3.93;;;;;;;;;;5034148;28;20446;-58
2023/04/30 01:16:09;;;;;;;7.77;3.50;;;;;;;;;;5034286;28;20431;-57
2023/04/30 01:18:39;;;;;;;6.20;3.20;;;;;;;;;;5034403;28;20453;-57
2023/04/30 01:21:07;;;;;;;4.27;2.90;;;;;;;;;;5034483;28;20802;-58
2023/04/30 01:23:41;;;;;;;8.17;3.40;;;;;;;;;;5033993;28;20449;-58
2023/04/30 01:26:11;;;;;;;3.83;3.43;;;;;;;;;;5034103;28;20950;-58
2023/04/30 01:28:39;;;;;;;6.23;3.20;;;;;;;;;;5033934;28;20435;-58
2023/04/30 01:31:11;;;;;;;6.60;3.23;;;;;;;;;;5034058;28;20451;-58
2023/04/30 01:33:37;;;;;;;4.70;3.20;;;;;;;;;;5033950;28;20941;-58
2023/04/30 01:36:21;;;;;;;6.10;3.50;;;;;;;;;;5034036;28;20424;-58
2023/04/30 01:38:56;;;;;;;5.67;3.33;;;;;;;;;;5033321;28;20200;-58
2023/04/30 01:41:28;;;;;;;5.70;2.70;;;;;;;;;;5034062;28;20493;-58
2023/04/30 01:44:00;;;;;;;3.17;2.87;;;;;;;;;;5033726;28;20483;-58
2023/04/30 01:46:28;;;;;;;6.13;3.23;;;;;;;;;;5033488;28;20443;-58
2023/04/30 01:48:58;;;;;;;4.77;2.90;;;;;;;;;;5033469;28;20878;-58
2023/04/30 01:51:28;;;;;;;3.67;3.03;;;;;;;;;;5033462;28;20439;-58
2023/04/30 01:53:56;;;;;;;5.00;2.97;;;;;;;;;;5033373;28;20448;-58
2023/04/30 01:56:27;;;;;;;4.43;3.23;;;;;;;;;;5033460;28;20436;-59
2023/04/30 01:58:53;;;;;;;5.97;3.20;;;;;;;;;;5033533;28;20937;-59
2023/04/30 02:01:30;;;;;;;4.50;2.97;;;;;;;;;;5033379;28;20847;-58
2023/04/30 02:03:56;;;;;;;6.57;3.43;;;;;;;;;;5033235;28;20460;-58
2023/04/30 02:06:30;;;;;;;8.27;3.37;;;;;;;;;;5032574;28;20471;-58
2023/04/30 02:09:01;;;;;;;8.17;4.20;;;;;;;;;;5033277;28;20569;-58
2023/04/30 02:11:27;;;;;;;4.70;3.40;;;;;;;;;;5033408;28;20838;-58
2023/04/30 02:13:53;;;;;;;6.13;3.60;;;;;;;;;;5033033;28;20443;-58
2023/04/30 02:16:19;;;;;;;6.57;3.63;;;;;;;;;;5033183;28;20224;-58
2023/04/30 02:18:47;;;;;;;5.73;3.50;;;;;;;;;;5033122;28;20201;-58
2023/04/30 02:21:13;;;;;;;7.53;3.63;;;;;;;;;;5032943;28;20467;-58
2023/04/30 02:23:39;;;;;;;6.30;3.53;;;;;;;;;;5032755;28;20550;-58
2023/04/30 02:26:05;;;;;;;7.93;3.87;;;;;;;;;;5033099;28;20486;-58
2023/04/30 02:28:31;;;;;;;6.90;3.40;;;;;;;;;;5032647;28;20518;-58
2023/04/30 02:30:57;;;;;;;4.37;3.10;;;;;;;;;;5032710;28;20674;-58
2023/04/30 02:33:23;;;;;;;3.97;3.10;;;;;;;;;;5032785;28;20201;-58
2023/04/30 02:35:51;;;;;;;4.30;2.93;;;;;;;;;;5032746;28;20451;-58
2023/04/30 02:38:17;;;;;;;7.63;3.70;;;;;;;;;;5032738;28;20197;-58
2023/04/30 02:40:43;;;;;;;5.67;3.50;;;;;;;;;;5032492;28;20787;-58
2023/04/30 02:43:09;;;;;;;5.67;2.80;;;;;;;;;;5032690;28;20247;-58
2023/04/30 02:45:35;;;;;;;4.43;3.20;;;;;;;;;;5032681;28;20663;-57
2023/04/30 02:48:01;;;;;;;6.77;3.47;;;;;;;;;;5032550;28;20689;-58
2023/04/30 02:50:27;;;;;;;8.00;3.57;;;;;;;;;;5032345;28;20493;-57
2023/04/30 02:52:55;;;;;;;5.23;3.13;;;;;;;;;;5032270;28;20527;-57
2023/04/30 02:55:21;;;;;;;4.93;3.23;;;;;;;;;;5032450;28;20215;-58
2023/04/30 02:57:47;;;;;;;4.47;3.00;;;;;;;;;;5032057;28;20446;-57
2023/04/30 03:00:13;;;;;;;5.23;3.23;;;;;;;;;;5032258;28;20849;-57
2023/04/30 03:02:39;;;;;;;3.80;3.20;;;;;;;;;;5032072;28;20534;-58
2023/04/30 03:05:06;;;;;;;5.13;3.40;;;;;;;;;;5032020;28;20480;-58
2023/04/30 03:07:32;;;;;;;3.83;2.80;;;;;;;;;;5031909;28;20513;-58
2023/04/30 03:09:59;;;;;;;5.20;3.30;;;;;;;;;;5032040;28;21249;-57
2023/04/30 03:12:25;;;;;;;4.07;2.60;;;;;;;;;;5031859;28;20566;-57
2023/04/30 03:14:51;;;;;;;6.47;3.33;;;;;;;;;;5031951;28;20435;-57
2023/04/30 03:17:17;;;;;;;5.30;3.27;;;;;;;;;;5031312;28;20609;-57
2023/04/30 03:19:43;;;;;;;4.23;2.97;;;;;;;;;;5031637;28;20439;-57
2023/04/30 03:22:10;;;;;;;6.03;3.10;;;;;;;;;;5031831;28;20458;-57
2023/04/30 03:24:36;;;;;;;4.37;2.97;;;;;;;;;;5031938;28;20216;-57
2023/04/30 03:27:03;;;;;;;4.17;3.00;;;;;;;;;;5031909;28;20948;-57
2023/04/30 03:29:29;;;;;;;4.53;3.13;;;;;;;;;;5031757;28;20196;-57
2023/04/30 03:31:55;;;;;;;5.30;3.17;;;;;;;;;;5031597;28;20432;-57
2023/04/30 03:34:21;;;;;;;4.13;3.07;;;;;;;;;;5031882;28;20531;-57
2023/04/30 03:36:47;;;;;;;4.33;3.40;;;;;;;;;;5031649;28;20519;-57
2023/04/30 03:39:14;;;;;;;3.87;3.20;;;;;;;;;;5031691;28;20736;-58
2023/04/30 03:41:40;;;;;;;4.83;2.93;;;;;;;;;;5031598;28;20201;-57
2023/04/30 03:44:14;;;;;;;6.10;3.40;;;;;;;;;;5031626;28;20498;-58
2023/04/30 03:46:41;;;;;;;6.67;3.93;;;;;;;;;;5031467;28;20209;-58
2023/04/30 03:49:07;;;;;;;5.87;3.67;;;;;;;;;;5031728;28;20446;-58
2023/04/30 03:51:33;;;;;;;7.07;3.43;;;;;;;;;;5031482;28;20436;-59
2023/04/30 03:53:59;;;;;;;5.80;3.57;;;;;;;;;;5031284;28;20710;-59
2023/04/30 03:56:25;;;;;;;6.00;3.53;;;;;;;;;;5031581;28;20490;-58
2023/04/30 03:58:51;;;;;;;3.40;3.10;;;;;;;;;;5031470;28;20288;-58
2023/04/30 04:01:18;;;;;;;4.10;3.50;;;;;;;;;;5031422;28;20475;-59
2023/04/30 04:03:45;;;;;;;4.70;3.10;;;;;;;;;;5031223;28;20814;-59
2023/04/30 04:06:11;;;;;;;4.53;3.50;;;;;;;;;;5031256;28;21060;-59
2023/04/30 04:08:37;;;;;;;5.50;3.50;;;;;;;;;;5031291;28;20831;-59
2023/04/30 04:11:03;;;;;;;3.83;3.20;;;;;;;;;;5031274;28;20467;-58
2023/04/30 04:13:29;;;;;;;7.67;3.47;;;;;;;;;;5031248;28;20514;-59
2023/04/30 04:15:55;;;;;;;7.10;4.00;;;;;;;;;;5031135;28;20424;-59
2023/04/30 04:18:22;;;;;;;6.47;3.77;;;;;;;;;;5031283;28;20445;-58
2023/04/30 04:20:48;;;;;;;7.23;3.63;;;;;;;;;;5031238;28;20215;-58
2023/04/30 04:23:14;;;;;;;8.20;6.30;;;;;;;;;;5031261;28;20435;-58
2023/04/30 04:25:43;;;;;;;10.33;4.40;;;;;;;;;;5031066;28;20499;-56
2023/04/30 04:28:09;;;;;;;5.13;3.73;;;;;;;;;;5031257;28;20443;-58
2023/04/30 04:30:35;;;;;;;5.57;3.80;;;;;;;;;;5034944;28;20438;-58
2023/04/30 04:33:01;;;;;;;4.83;3.60;;;;;;;;;;5034949;28;20427;-58
2023/04/30 04:35:28;;;;;;;4.63;3.30;;;;;;;;;;5035072;28;20431;-59
2023/04/30 04:37:55;;;;;;;4.17;3.40;;;;;;;;;;5034712;28;20471;-59
2023/04/30 04:40:21;;;;;;;5.50;3.70;;;;;;;;;;5035013;28;20485;-59
2023/04/30 04:42:50;;;;;;;3.53;3.10;;;;;;;;;;5034823;28;20431;-59
2023/04/30 04:45:18;;;;;;;5.23;3.50;;;;;;;;;;5034759;28;20482;-58
2023/04/30 04:47:44;;;;;;;4.63;3.67;;;;;;;;;;5034656;28;20700;-58
2023/04/30 04:50:10;;;;;;;4.77;3.53;;;;;;;;;;5034526;28;20562;-59
2023/04/30 04:52:38;;;;;;;5.27;3.97;;;;;;;;;;5034778;28;20236;-58
2023/04/30 04:55:04;;;;;;;6.80;4.40;;;;;;;;;;5034748;28;20801;-58
2023/04/30 04:57:30;;;;;;;4.80;4.10;;;;;;;;;;5034864;28;20470;-58
2023/04/30 04:59:56;;;;;;;5.50;4.23;;;;;;;;;;5034667;28;20439;-58
2023/04/30 05:02:22;;;;;;;5.73;3.93;;;;;;;;;;5034883;28;20316;-59
2023/04/30 05:04:49;;;;;;;6.20;4.83;;;;;;;;;;5034455;28;20225;-59
2023/04/30 05:07:16;;;;;;;6.70;4.80;;;;;;;;;;5034160;28;20507;-58
2023/04/30 05:09:44;;;;;;;4.27;3.87;;;;;;;;;;5034213;28;20431;-59
2023/04/30 05:12:10;;;;;;;7.27;4.47;;;;;;;;;;5034384;28;20467;-58
2023/04/30 05:14:36;;;;;;;5.07;4.40;;;;;;;;;;5034355;28;20529;-58
2023/04/30 05:17:02;;;;;;;5.83;4.57;;;;;;;;;;5034214;28;20189;-58
2023/04/30 05:19:28;;;;;;;4.80;4.30;;;;;;;;;;5034087;28;20925;-58
2023/04/30 05:21:54;;;;;;;9.03;5.57;;;;;;;;;;5033981;28;20200;-59
2023/04/30 05:24:20;;;;;;;6.93;5.60;;;;;;;;;;5034266;28;20579;-59
2023/04/30 05:26:47;;;;;;;8.60;5.87;;;;;;;;;;5033957;28;20250;-60
2023/04/30 05:29:13;;;;;;;6.37;5.10;;;;;;;;;;5033993;28;20216;-59
2023/04/30 05:31:40;;;;;;;8.70;6.10;;;;;;;;;;5034043;28;20436;-59
2023/04/30 05:34:06;;;;;;;7.70;5.83;;;;;;;;;;5034051;28;20732;-59
2023/04/30 05:36:32;;;;;;;8.20;5.67;;;;;;;;;;5033816;28;20440;-59
2023/04/30 05:38:58;;;;;;;8.27;6.07;;;;;;;;;;5033680;28;20444;-59
2023/04/30 05:41:25;;;;;;;6.00;4.90;;;;;;;;;;5032744;28;20527;-59
2023/04/30 05:43:52;;;;;;;8.77;6.13;;;;;;;;;;5033862;28;20251;-58
2023/04/30 05:46:18;;;;;;;6.77;5.07;;;;;;;;;;5033731;28;20472;-58
2023/04/30 05:48:44;;;;;;;6.97;5.47;;;;;;;;;;5033477;28;20436;-58
2023/04/30 05:51:10;;;;;;;7.20;4.87;;;;;;;;;;5033599;28;20255;-57
2023/04/30 05:53:36;;;;;;;6.07;4.93;;;;;;;;;;5033562;28;20447;-58
2023/04/30 05:56:02;;;;;;;7.50;5.27;;;;;;;;;;5033381;28;20208;-58
2023/04/30 05:58:28;;;;;;;6.37;4.67;;;;;;;;;;5033467;28;20435;-58
2023/04/30 06:00:55;;;;;;;7.87;4.77;;;;;;;;;;5033305;28;20200;-58
2023/04/30 06:03:22;;;;;;;6.07;4.53;;;;;;;;;;5033327;28;20800;-58
2023/04/30 06:05:48;;;;;;;7.10;4.63;;;;;;;;;;5033138;28;20240;-58
2023/04/30 06:08:14;;;;;;;5.53;4.13;;;;;;;;;;5033251;28;20205;-57
2023/04/30 06:10:40;;;;;;;11.20;4.47;;;;;;;;;;5033149;28;20220;-58
2023/04/30 06:13:06;;;;;;;6.47;3.60;;;;;;;;;;5033218;28;20612;-58
2023/04/30 06:15:32;;;;;;;8.17;3.90;;;;;;;;;;5033126;28;20563;-57
2023/04/30 06:18:00;;;;;;;6.97;3.80;;;;;;;;;;5033171;28;20311;-57
2023/04/30 06:20:26;;;;;;;6.03;3.57;;;;;;;;;;5033017;28;20209;-58
2023/04/30 06:22:52;;;;;;;8.57;3.30;;;;;;;;;;5032976;28;20204;-57
2023/04/30 06:25:19;;;;;;;9.60;4.40;;;;;;;;;;5033046;28;20261;-57
2023/04/30 06:27:45;;;;;;;7.33;3.37;;;;;;;;;;5032793;28;20251;-58
2023/04/30 06:30:12;;;;;;;7.00;3.20;;;;;;;;;;5032982;28;20208;-58
2023/04/30 06:32:38;;;;;;;10.97;3.73;;;;;;;;;;5032784;28;20736;-58
2023/04/30 06:35:06;;;;;;;8.53;3.30;;;;;;;;;;5032733;28;20201;-58
2023/04/30 06:37:36;;;;;;;6.70;3.20;;;;;;;;;;5032659;28;20267;-58
2023/04/30 06:40:02;;;;;;;6.67;2.70;;;;;;;;;;5032614;28;20615;-58
2023/04/30 06:42:33;;;;;;;6.43;2.70;;;;;;;;;;5032549;28;20204;-58
2023/04/30 06:45:00;;;;;;;4.73;3.13;;;;;;;;;;5032309;28;20224;-58
2023/04/30 06:47:25;;;;;;;10.43;3.00;;;;;;;;;;5032639;28;20209;-58
2023/04/30 06:49:51;;;;;;;6.40;3.30;;;;;;;;;;5032507;28;20312;-59
2023/04/30 06:52:19;;;;;;;5.13;3.07;;;;;;;;;;5032029;28;20193;-59
2023/04/30 06:54:45;;;;;;;7.63;2.53;;;;;;;;;;5032375;28;20280;-58
2023/04/30 06:57:11;;;;;;;5.40;2.90;;;;;;;;;;5032171;28;20197;-59
2023/04/30 06:59:38;;;;;;;6.10;2.60;;;;;;;;;;5032442;28;20201;-59
2023/04/30 07:02:04;;;;;;;43.67;39.40;;;;;;;;;;5032189;28;20716;-59
2023/04/30 07:04:30;;;;;;;23.67;19.90;;;;;;;;;;5032089;28;20233;-60
2023/04/30 07:06:56;;;;;;;4.60;3.63;;;;;;;;;;5031990;28;20340;-60
2023/04/30 07:09:23;;;;;;;8.17;4.33;;;;;;;;;;5032084;28;20274;-59
2023/04/30 07:11:50;;;;;;;9.93;4.63;;;;;;;;;;5032117;28;20204;-59
2023/04/30 07:14:16;;;;;;;5.27;2.90;;;;;;;;;;5032098;28;20200;-59
2023/04/30 07:16:42;;;;;;;4.50;2.43;;;;;;;;;;5031882;28;20673;-60
2023/04/30 07:19:08;;;;;;;8.87;3.30;;;;;;;;;;5031989;28;20197;-60
2023/04/30 07:21:34;;;;;;;5.47;3.13;;;;;;;;;;5032062;28;20271;-59
2023/04/30 07:24:00;;;;;;;5.50;2.60;;;;;;;;;;5032003;28;20193;-59
2023/04/30 07:26:27;;;;;;;6.20;2.33;;;;;;;;;;5031850;28;20710;-56
2023/04/30 07:28:53;;;;;;;8.37;2.67;;;;;;;;;;5031849;28;20572;-57
2023/04/30 07:31:19;;;;;;;5.80;2.70;;;;;;;;;;5031899;28;20201;-58
2023/04/30 07:33:45;;;;;;;9.33;2.60;;;;;;;;;;5031667;28;20200;-58
2023/04/30 07:36:11;;;;;;;10.23;2.87;;;;;;;;;;5031422;28;20197;-58
2023/04/30 07:38:37;;;;;;;5.63;2.63;;;;;;;;;;5031633;28;20201;-59
2023/04/30 07:41:03;;;;;;;5.97;2.50;;;;;;;;;;5031710;28;20243;-58
2023/04/30 07:43:30;;;;;;;6.20;2.70;;;;;;;;;;5031708;28;20568;-58
2023/04/30 07:45:56;;;;;;;4.90;2.23;;;;;;;;;;5031497;28;20225;-58
2023/04/30 07:48:22;;;;;;;3.80;2.23;;;;;;;;;;5031871;28;20211;-58
2023/04/30 07:50:48;;;;;;;7.23;5.97;;;;;;;;;;5031898;28;20210;-58
2023/04/30 07:53:15;;;;;;;5.40;2.57;;;;;;;;;;5031538;28;20287;-58
2023/04/30 07:55:41;;;;;;;6.33;2.77;;;;;;;;;;5029566;28;20284;-64
2023/04/30 07:58:07;;;;;;;6.67;2.40;;;;;;;;;;5031260;28;20276;-58
2023/04/30 08:00:34;;;;;;;4.80;2.57;;;;;;;;;;5031298;28;20616;-59
2023/04/30 08:03:00;;;;;;;3.97;2.47;;;;;;;;;;5031335;28;20208;-58
2023/04/30 08:05:26;;;;;;;5.13;2.40;;;;;;;;;;5036982;28;20398;-58
2023/04/30 08:07:52;;;;;;;4.80;2.53;;;;;;;;;;5037761;28;20204;-58
2023/04/30 08:10:18;;;;;;;8.03;2.60;;;;;;;;;;5037730;28;20608;-58
2023/04/30 08:12:44;;;;;;;4.27;2.63;;;;;;;;;;5037894;28;20200;-58
2023/04/30 08:15:10;;;;;;;5.40;2.30;;;;;;;;;;5037538;28;20250;-58
2023/04/30 08:17:38;;;;;;;5.97;2.30;;;;;;;;;;5037824;28;20196;-57
2023/04/30 08:20:04;;;;;;;4.13;2.00;;;;;;;;;;5037545;28;20670;-57
2023/04/30 08:22:30;;;;;;;8.10;2.17;;;;;;;;;;5037549;28;20207;-58
2023/04/30 08:24:56;;;;;;;5.80;2.40;;;;;;;;;;5037339;28;20220;-57
2023/04/30 08:27:22;;;;;;;5.20;2.10;;;;;;;;;;5037609;28;20662;-58
2023/04/30 08:29:48;;;;;;;6.00;2.67;;;;;;;;;;5037532;28;20742;-58
2023/04/30 08:32:14;;;;;;;6.23;2.70;;;;;;;;;;5037298;28;20236;-57
2023/04/30 08:34:42;;;;;;;6.13;3.03;;;;;;;;;;5037488;28;20204;-57
2023/04/30 08:37:08;;;;;;;7.73;2.70;;;;;;;;;;5037354;28;20201;-57
2023/04/30 08:39:34;;;;;;;5.20;2.20;;;;;;;;;;5037806;28;20204;-58
2023/04/30 08:42:02;;;;;;;5.73;2.30;;;;;;;;;;5037367;28;20211;-58
2023/04/30 08:44:29;;;;;;;3.97;2.20;;;;;;;;;;5037496;28;20205;-57
2023/04/30 08:46:56;;;;;;;3.20;2.23;;;;;;;;;;5037301;28;20204;-57
2023/04/30 08:49:22;;;;;;;3.10;2.00;;;;;;;;;;5037401;28;20243;-58
2023/04/30 08:51:50;;;;;;;6.30;2.50;;;;;;;;;;5037237;28;20662;-57
2023/04/30 08:54:17;;;;;;;5.53;2.20;;;;;;;;;;5037349;28;20233;-56
2023/04/30 08:56:44;;;;;;;8.77;2.63;;;;;;;;;;5037429;28;20291;-56
2023/04/30 08:59:11;;;;;;;5.53;2.27;;;;;;;;;;5037158;28;20196;-57
2023/04/30 09:01:37;;;;;;;5.50;2.13;;;;;;;;;;5037495;28;20220;-56
2023/04/30 09:04:03;;;;;;;4.70;2.10;;;;;;;;;;5037178;28;20244;-57
2023/04/30 09:06:30;;;;;;;3.60;2.20;;;;;;;;;;5036959;28;20236;-57
2023/04/30 09:09:07;;;;;;;4.00;2.20;;;;;;;;;;5037294;28;20205;-56
2023/04/30 09:11:33;;;;;;;8.27;2.33;;;;;;;;;;5037304;28;20197;-56
2023/04/30 09:13:59;;;;;;;4.53;2.17;;;;;;;;;;5037215;28;20204;-58
2023/04/30 09:16:26;;;;;;;2.87;1.70;;;;;;;;;;5034530;28;20207;-57
2023/04/30 09:18:52;;;;;;;3.60;2.10;;;;;;;;;;5034148;28;20233;-57
2023/04/30 09:21:30;;;;;;;4.73;2.27;;;;;;;;;;5033931;28;20579;-56
2023/04/30 09:23:59;;;;;;;3.57;1.87;;;;;;;;;;5033876;28;20733;-56
2023/04/30 09:26:31;;;;;;;3.63;2.03;;;;;;;;;;5033728;28;20229;-58
2023/04/30 09:28:58;;;;;;;4.23;2.40;;;;;;;;;;5033938;28;20288;-58
2023/04/30 09:31:25;;;;;;;4.83;2.40;;;;;;;;;;5033757;28;20259;-59
2023/04/30 09:33:52;;;;;;;6.23;2.43;;;;;;;;;;5033982;28;20209;-58
2023/04/30 09:36:18;;;;;;;5.23;2.03;;;;;;;;;;5033622;28;20210;-57
2023/04/30 09:38:44;;;;;;;4.30;1.90;;;;;;;;;;5033634;28;20195;-57
2023/04/30 09:41:22;;;;;;;6.43;2.20;;;;;;;;;;5033427;28;20204;-57
2023/04/30 09:43:48;;;;;;;3.87;1.93;;;;;;;;;;5033653;28;20214;-58
2023/04/30 09:46:15;;;;;;;3.70;1.83;;;;;;;;;;5033252;28;20720;-59
2023/04/30 09:48:41;;;;;;;6.13;2.30;;;;;;;;;;5033584;28;20284;-57
2023/04/30 09:51:07;;;;;;;6.17;2.77;;;;;;;;;;5033352;28;20202;-58
2023/04/30 09:53:33;;;;;;;5.37;2.00;;;;;;;;;;5033460;28;20199;-58
2023/04/30 09:56:02;;;;;;;3.13;1.70;;;;;;;;;;5033326;28;20206;-58
2023/04/30 09:58:31;;;;;;;4.27;2.17;;;;;;;;;;5033099;28;20712;-58
2023/04/30 10:00:58;;;;;;;4.03;2.10;;;;;;;;;;5033482;28;20241;-58
2023/04/30 10:03:24;;;;;;;7.37;2.43;;;;;;;;;;5033465;28;20315;-58
2023/04/30 10:05:51;;;;;;;4.00;2.10;;;;;;;;;;5033426;28;20323;-58
2023/04/30 10:08:21;;;;;;;4.00;1.83;;;;;;;;;;5033215;28;20247;-58
2023/04/30 10:10:50;;;;;;;5.37;1.80;;;;;;;;;;5033294;28;20211;-58
2023/04/30 10:13:18;;;;;;;5.17;2.20;;;;;;;;;;5033332;28;20201;-59
2023/04/30 10:15:48;;;;;;;4.90;2.00;;;;;;;;;;5032946;28;20663;-59
2023/04/30 10:18:17;;;;;;;4.27;2.10;;;;;;;;;;5032879;28;20415;-58
2023/04/30 10:20:46;;;;;;;5.07;2.10;;;;;;;;;;5033333;28;20525;-58
2023/04/30 10:23:12;;;;;;;2.63;1.83;;;;;;;;;;5032871;28;20204;-57
2023/04/30 10:25:39;;;;;;;5.60;2.10;;;;;;;;;;5033131;28;20274;-57
2023/04/30 10:28:06;;;;;;;5.80;2.27;;;;;;;;;;5032494;28;20200;-57
2023/04/30 10:30:34;;;;;;;3.73;2.30;;;;;;;;;;5032832;28;20201;-58
2023/04/30 10:33:06;;;;;;;4.73;2.13;;;;;;;;;;5032917;28;20212;-58
2023/04/30 10:35:34;;;;;;;4.37;2.23;;;;;;;;;;5032726;28;20625;-57
2023/04/30 10:38:06;;;;;;;5.50;2.17;;;;;;;;;;5032666;28;20228;-57
2023/04/30 10:40:35;;;;;;;7.07;2.30;;;;;;;;;;5032646;28;20198;-57
2023/04/30 10:43:01;;;;;;;4.10;2.07;;;;;;;;;;5032687;28;20196;-58
2023/04/30 10:45:35;;;;;;;5.33;2.00;;;;;;;;;;5032507;28;20240;-59
2023/04/30 10:48:02;;;;;;;5.53;2.13;;;;;;;;;;5032567;28;20708;-58
2023/04/30 10:50:29;;;;;;;2.70;2.13;;;;;;;;;;5032388;28;20224;-58
2023/04/30 10:53:02;;;;;;;4.40;2.20;;;;;;;;;;5032389;28;20622;-58
2023/04/30 10:55:29;;;;;;;5.50;2.10;;;;;;;;;;5032323;28;20231;-58
2023/04/30 10:57:55;;;;;;;4.30;2.47;;;;;;;;;;5032421;28;20287;-58
2023/04/30 11:00:24;;;;;;;4.43;2.60;;;;;;;;;;5032352;28;20239;-58
2023/04/30 11:02:55;;;;;;;4.77;2.43;;;;;;;;;;5032352;28;20285;-57
2023/04/30 11:05:32;;;;;;;3.40;2.00;;;;;;;;;;5031998;28;20228;-57
2023/04/30 11:07:58;;;;;;;4.27;2.10;;;;;;;;;;5032033;28;20196;-57
2023/04/30 11:10:27;;;;;;;4.30;2.30;;;;;;;;;;5032047;28;20208;-57
2023/04/30 11:12:54;;;;;;;4.87;2.23;;;;;;;;;;5032146;28;20209;-58
2023/04/30 11:15:21;;;;;;;2.80;1.83;;;;;;;;;;5032100;28;20204;-58
2023/04/30 11:17:48;;;;;;;5.80;2.23;;;;;;;;;;5032074;28;20196;-56
2023/04/30 11:20:18;;;;;;;5.00;2.37;;;;;;;;;;5031869;28;20204;-58
2023/04/30 11:22:45;;;;;;;4.57;2.30;;;;;;;;;;5031736;28;20693;-58
2023/04/30 11:25:12;;;;;;;4.43;2.20;;;;;;;;;;5031763;28;20235;-57
2023/04/30 11:27:39;;;;;;;4.00;2.20;;;;;;;;;;5031906;28;20515;-57
2023/04/30 11:30:10;;;;;;;4.17;2.27;;;;;;;;;;5031975;28;20608;-57
2023/04/30 11:32:37;;;;;;;6.13;2.30;;;;;;;;;;5031912;28;20224;-57
2023/04/30 11:35:04;;;;;;;3.47;1.80;;;;;;;;;;5031834;28;20192;-56
2023/04/30 11:37:31;;;;;;;6.50;2.20;;;;;;;;;;5031433;28;20216;-57
2023/04/30 11:40:00;;;;;;;6.43;2.30;;;;;;;;;;5030703;28;20289;-57
2023/04/30 11:42:26;;;;;;;5.57;2.57;;;;;;;;;;5031408;28;20203;-56
2023/04/30 11:44:52;;;;;;;4.03;2.33;;;;;;;;;;5031638;28;22164;-56
2023/04/30 11:47:18;;;;;;;3.83;2.50;;;;;;;;;;5031543;28;20272;-56
2023/04/30 11:49:44;;;;;;;5.70;2.50;;;;;;;;;;5031856;28;20207;-60
2023/04/30 11:52:12;;;;;;;4.07;2.03;;;;;;;;;;5031625;28;20186;-56
2023/04/30 11:54:38;;;;;;;3.87;2.10;;;;;;;;;;5031949;28;20222;-56
2023/04/30 11:57:06;;;;;;;3.83;2.03;;;;;;;;;;5031553;28;20197;-56
2023/04/30 11:59:40;;;;;;;5.00;2.50;;;;;;;;;;5031369;28;20197;-56
2023/04/30 12:02:06;;;;;;;4.50;1.87;;;;;;;;;;5031573;28;20217;-57
2023/04/30 12:04:32;;;;;;;3.40;1.90;;;;;;;;;;5031236;28;20647;-56
2023/04/30 12:06:59;;;;;;;5.50;2.50;;;;;;;;;;5030865;28;20778;-56
2023/04/30 12:09:25;;;;;;;6.30;2.50;;;;;;;;;;5031282;28;20285;-56
2023/04/30 12:11:51;;;;;;;4.03;2.13;;;;;;;;;;5031396;28;20288;-56
2023/04/30 12:14:18;;;;;;;5.00;1.87;;;;;;;;;;5031233;28;20200;-57
2023/04/30 12:16:47;;;;;;;2.30;1.70;;;;;;;;;;5031208;28;20199;-56
2023/04/30 12:19:13;;;;;;;5.17;1.90;;;;;;;;;;5031387;28;20281;-56
2023/04/30 12:21:41;;;;;;;4.90;1.90;;;;;;;;;;5030993;28;20206;-56
2023/04/30 12:24:07;;;;;;;6.23;1.83;;;;;;;;;;5031315;28;20206;-56
2023/04/30 12:26:37;;;;;;;2.77;1.70;;;;;;;;;;5030966;28;20281;-57
2023/04/30 12:29:04;;;;;;;2.80;1.80;;;;;;;;;;5031332;28;20297;-57
2023/04/30 12:31:32;;;;;;;4.73;2.03;;;;;;;;;;5031016;28;20214;-56
2023/04/30 12:34:02;;;;;;;2.87;2.13;;;;;;;;;;5030897;28;20605;-56
2023/04/30 12:36:32;;;;;;;5.17;2.20;;;;;;;;;;5031015;28;20649;-56
2023/04/30 12:39:02;;;;;;;6.73;2.10;;;;;;;;;;5030977;28;20560;-57
2023/04/30 12:41:28;;;;;;;2.90;1.83;;;;;;;;;;5030876;28;20198;-56
2023/04/30 12:44:09;;;;;;;4.10;2.07;;;;;;;;;;5031066;28;20659;-57
2023/04/30 12:46:37;;;;;;;5.60;2.10;;;;;;;;;;5030520;28;20229;-56
2023/04/30 12:49:02;;;;;;;5.27;2.10;;;;;;;;;;5031118;28;20209;-56
2023/04/30 12:51:29;;;;;;;5.53;2.60;;;;;;;;;;5034036;28;20531;-56
2023/04/30 12:53:55;;;;;;;5.57;2.13;;;;;;;;;;5034537;28;20659;-57
2023/04/30 12:56:21;;;;;;;2.97;2.00;;;;;;;;;;5034683;28;20204;-57
2023/04/30 12:58:49;;;;;;;3.87;2.20;;;;;;;;;;5034607;28;20204;-57
2023/04/30 13:01:16;;;;;;;3.07;2.00;;;;;;;;;;5034382;28;20208;-57
2023/04/30 13:03:44;;;;;;;5.27;2.30;;;;;;;;;;5034293;28;20760;-57
2023/04/30 13:06:10;;;;;;;4.47;2.00;;;;;;;;;;5034088;28;20237;-59
2023/04/30 13:08:36;;;;;;;3.03;2.00;;;;;;;;;;5034401;28;20244;-58
2023/04/30 13:11:03;;;;;;;7.03;2.30;;;;;;;;;;5034469;28;20570;-54
2023/04/30 13:13:29;;;;;;;4.60;2.47;;;;;;;;;;5034345;28;20209;-60
2023/04/30 13:15:55;;;;;;;5.57;2.30;;;;;;;;;;5034321;28;20668;-64
2023/04/30 13:18:21;;;;;;;3.73;1.87;;;;;;;;;;5034225;28;20198;-60
2023/04/30 13:20:48;;;;;;;4.00;2.03;;;;;;;;;;5034006;28;20198;-65
2023/04/30 13:23:14;;;;;;;3.53;1.97;;;;;;;;;;5034040;28;20225;-69
2023/04/30 13:25:41;;;;;;;2.70;1.90;;;;;;;;;;5034049;28;20686;-59
2023/04/30 13:28:07;;;;;;;3.20;2.07;;;;;;;;;;5034166;28;20209;-61
2023/04/30 13:30:33;;;;;;;4.77;1.90;;;;;;;;;;5033992;28;20251;-60
2023/04/30 13:32:59;;;;;;;4.23;1.83;;;;;;;;;;5033966;28;20197;-61
2023/04/30 13:35:26;;;;;;;4.13;2.30;;;;;;;;;;5033673;28;20193;-62
2023/04/30 13:37:53;;;;;;;4.90;2.43;;;;;;;;;;5033967;28;20198;-61
2023/04/30 13:40:20;;;;;;;4.93;2.57;;;;;;;;;;5034036;28;20248;-62
2023/04/30 13:42:46;;;;;;;4.33;2.40;;;;;;;;;;5033803;28;20221;-62
2023/04/30 13:45:13;;;;;;;4.23;2.27;;;;;;;;;;5033622;28;20225;-62
2023/04/30 13:47:39;;;;;;;5.33;2.20;;;;;;;;;;5033748;28;20547;-60
2023/04/30 13:50:07;;;;;;;5.63;2.10;;;;;;;;;;5033821;28;20206;-60
2023/04/30 13:52:33;;;;;;;6.43;2.53;;;;;;;;;;5033582;28;20275;-61
2023/04/30 13:55:01;;;;;;;4.83;2.03;;;;;;;;;;5033449;28;20198;-61
2023/04/30 13:57:28;;;;;;;3.63;2.17;;;;;;;;;;5033274;28;20259;-61
2023/04/30 13:59:55;;;;;;;4.23;2.23;;;;;;;;;;5033546;28;20205;-61
2023/04/30 14:02:21;;;;;;;5.80;2.17;;;;;;;;;;5032711;28;20260;-61
2023/04/30 14:04:47;;;;;;;7.00;2.50;;;;;;;;;;5033327;28;20643;-61
2023/04/30 14:07:13;;;;;;;5.53;2.10;;;;;;;;;;5033283;28;20613;-61
2023/04/30 14:09:39;;;;;;;4.40;2.07;;;;;;;;;;5033546;28;20203;-61
2023/04/30 14:12:07;;;;;;;5.10;2.17;;;;;;;;;;5033685;28;20272;-63
2023/04/30 14:14:33;;;;;;;4.23;2.23;;;;;;;;;;5033344;28;20301;-61
2023/04/30 14:16:59;;;;;;;5.17;2.40;;;;;;;;;;5033357;28;20706;-61
2023/04/30 14:19:25;;;;;;;4.03;2.30;;;;;;;;;;5033219;28;20646;-61
2023/04/30 14:21:51;;;;;;;5.17;2.40;;;;;;;;;;5033401;28;20204;-60
2023/04/30 14:24:18;;;;;;;3.10;1.90;;;;;;;;;;5033269;28;20201;-61
2023/04/30 14:26:45;;;;;;;4.53;2.00;;;;;;;;;;5032917;28;20233;-61
2023/04/30 14:29:12;;;;;;;4.87;2.20;;;;;;;;;;5033341;28;20231;-62
2023/04/30 14:31:38;;;;;;;4.57;2.20;;;;;;;;;;5033090;28;20292;-61
2023/04/30 14:34:04;;;;;;;4.07;2.20;;;;;;;;;;5033114;28;20698;-60
2023/04/30 14:36:30;;;;;;;3.00;1.90;;;;;;;;;;5032907;28;20217;-62
2023/04/30 14:38:56;;;;;;;4.03;2.10;;;;;;;;;;5032931;28;20211;-61
2023/04/30 14:41:22;;;;;;;3.97;1.90;;;;;;;;;;5032900;28;20196;-61